Time;durP1;ratioP1;P1;durP2;ratioP2;P2;SDS_P1;SDS_P2;PMS_P1;PMS_P2;Temp;Humidity;BMP_temperature;BMP_pressure;BME280_temperature;BME280_humidity;BME280_pressure;Samples;Min_cycle;Max_cycle;Signal;HPM_P1;HPM_P2
2023/05/23 00:00:41;;;;;;;3.25;2.22;;;;;;;16.30;100.00;97863.50;5054031;28;20706;-62
2023/05/23 00:03:07;;;;;;;2.83;2.50;;;;;;;16.34;96.57;97853.56;5054342;28;20177;-61
2023/05/23 00:05:33;;;;;;;3.13;2.58;;;;;;;16.39;98.33;97859.16;5054243;28;20248;-61
2023/05/23 00:08:00;;;;;;;3.08;2.78;;;;;;;16.68;100.00;97912.72;5054351;28;20271;-61
2023/05/23 00:10:25;;;;;;;2.28;2.17;;;;;;;16.27;99.72;97860.38;5051992;28;20650;-61
2023/05/23 00:12:51;;;;;;;2.78;2.58;;;;;;;16.51;98.51;97897.91;5051854;28;20273;-61
2023/05/23 00:15:16;;;;;;;2.90;2.58;;;;;;;16.21;99.75;97850.53;5051198;28;20243;-61
2023/05/23 00:17:43;;;;;;;2.38;2.22;;;;;;;16.24;100.00;97850.22;5051739;28;20259;-61
2023/05/23 00:20:10;;;;;;;7.35;2.33;;;;;;;16.68;96.21;97930.19;5051668;28;20712;-61
2023/05/23 00:22:38;;;;;;;2.28;2.08;;;;;;;16.13;100.00;97843.47;5051547;28;20201;-61
2023/05/23 00:25:05;;;;;;;2.53;2.33;;;;;;;16.40;100.00;97892.13;5051623;28;20242;-61
2023/05/23 00:27:31;;;;;;;2.67;2.47;;;;;;;16.46;99.54;97905.41;5051547;28;20669;-62
2023/05/23 00:29:56;;;;;;;4.53;2.30;;;;;;;16.56;100.00;97928.81;5051550;28;20193;-62
2023/05/23 00:32:21;;;;;;;3.67;2.42;;;;;;;16.15;99.66;97862.41;5051473;28;20271;-62
2023/05/23 00:34:47;;;;;;;3.05;2.80;;;;;;;16.11;97.72;97847.19;5031438;28;20182;-62
2023/05/23 00:37:13;;;;;;;3.42;2.55;;;;;;;16.49;98.66;97927.78;5031384;28;20241;-61
2023/05/23 00:39:39;;;;;;;2.30;2.10;;;;;;;16.20;97.24;97873.19;5011466;28;20686;-62
2023/05/23 00:42:05;;;;;;;2.60;2.38;;;;;;;16.26;98.62;97895.28;5026961;28;20241;-62
2023/05/23 00:44:31;;;;;;;5.03;2.72;;;;;;;15.95;99.99;97847.06;5031286;28;20182;-62
2023/05/23 00:46:57;;;;;;;2.95;2.75;;;;;;;16.13;100.00;97879.19;5031224;28;20665;-62
2023/05/23 00:49:23;;;;;;;4.47;2.97;;;;;;;16.06;100.00;97875.53;5031184;28;20206;-61
2023/05/23 00:51:50;;;;;;;3.22;2.42;;;;;;;16.08;100.00;97897.91;5031067;28;20777;-61
2023/05/23 00:54:32;;;;;;;4.90;2.70;;;;;;;15.90;100.00;97862.38;5031000;28;20273;-61
2023/05/23 00:56:58;;;;;;;4.18;2.83;;;;;;;15.83;100.00;97848.28;5031169;28;20194;-62
2023/05/23 00:59:24;;;;;;;6.35;2.90;;;;;;;15.87;100.00;97854.84;5030837;28;20224;-62
2023/05/23 01:01:51;;;;;;;2.88;2.60;;;;;;;16.10;98.41;97880.31;5030890;28;20639;-62
2023/05/23 01:04:18;;;;;;;3.40;2.40;;;;;;;15.89;97.81;97839.84;5030891;28;20240;-62
2023/05/23 01:06:45;;;;;;;5.95;2.60;;;;;;;16.09;96.84;97852.56;5030861;28;20218;-62
2023/05/23 01:09:13;;;;;;;2.95;2.65;;;;;;;16.02;96.10;97824.63;5030811;28;20179;-62
2023/05/23 01:12:16;;;;;;;2.85;2.65;;;;;;;16.30;98.06;97875.72;5036055;28;20278;-62
2023/05/23 01:14:48;;;;;;;4.38;2.92;;;;;;;15.95;99.42;97827.03;5047861;28;20734;-62
2023/05/23 01:17:26;;;;;;;4.18;2.65;;;;;;;15.92;100.00;97834.34;5051788;28;20187;-62
2023/05/23 01:20:11;;;;;;;3.20;3.00;;;;;;;16.36;100.00;97912.47;5052974;28;20166;-61
2023/05/23 01:23:10;;;;;;;3.05;2.80;;;;;;;16.29;100.00;97905.41;5052855;28;20221;-61
2023/05/23 01:25:58;;;;;;;3.30;3.08;;;;;;;16.08;100.00;97902.31;5052840;28;20170;-61
2023/05/23 01:28:27;;;;;;;5.13;2.80;;;;;;;16.01;100.00;97883.00;5052295;28;20169;-61
2023/05/23 01:30:55;;;;;;;3.00;2.45;;;;;;;15.97;100.00;97910.41;5052730;28;20199;-61
2023/05/23 01:33:22;;;;;;;3.55;2.97;;;;;;;15.57;100.00;97839.59;5052675;28;20169;-61
2023/05/23 01:35:48;;;;;;;2.90;2.70;;;;;;;15.90;100.00;97904.09;5052645;28;20178;-61
2023/05/23 01:38:13;;;;;;;6.45;3.30;;;;;;;15.72;100.00;97864.16;5052594;28;20714;-61
2023/05/23 01:40:39;;;;;;;3.85;2.90;;;;;;;15.62;100.00;97868.66;5052488;28;20173;-61
2023/05/23 01:43:04;;;;;;;5.22;2.75;;;;;;;15.80;100.00;97898.19;5052248;28;20173;-62
2023/05/23 01:45:30;;;;;;;2.80;2.60;;;;;;;15.52;100.00;97857.47;5052490;28;20231;-61
2023/05/23 01:47:57;;;;;;;2.90;2.70;;;;;;;15.64;100.00;97908.44;5052760;28;20173;-61
2023/05/23 01:50:23;;;;;;;3.42;3.00;;;;;;;15.58;100.00;97888.19;5052480;28;20184;-61
2023/05/23 01:52:49;;;;;;;2.85;2.50;;;;;;;15.08;100.00;97816.59;5052374;28;20181;-61
2023/05/23 01:55:21;;;;;;;4.22;2.47;;;;;;;15.64;100.00;97898.03;5052378;28;20178;-61
2023/05/23 01:57:50;;;;;;;3.33;2.70;;;;;;;15.41;100.00;97865.53;5052047;28;20181;-61
2023/05/23 02:00:16;;;;;;;6.47;3.03;;;;;;;15.27;100.00;97845.16;5052266;28;20276;-61
2023/05/23 02:02:42;;;;;;;3.15;2.83;;;;;;;15.51;100.00;97861.88;5051883;28;20599;-61
2023/05/23 02:05:10;;;;;;;5.40;3.00;;;;;;;15.16;100.00;97829.72;5051977;28;20286;-61
2023/05/23 02:07:35;;;;;;;3.10;2.67;;;;;;;15.51;100.00;97876.72;5050016;28;20189;-61
2023/05/23 02:10:02;;;;;;;5.72;2.70;;;;;;;15.12;100.00;97807.53;5052171;28;20184;-61
2023/05/23 02:12:28;;;;;;;4.43;3.00;;;;;;;15.57;100.00;97882.13;5052140;28;20184;-61
2023/05/23 02:14:54;;;;;;;3.60;3.20;;;;;;;15.48;100.00;97863.97;5049600;28;20186;-61
2023/05/23 02:17:20;;;;;;;3.83;3.45;;;;;;;15.53;100.00;97886.03;5049697;28;20347;-61
2023/05/23 02:19:46;;;;;;;4.20;3.17;;;;;;;15.28;100.00;97852.81;5049711;28;20193;-61
2023/05/23 02:22:12;;;;;;;3.85;3.55;;;;;;;15.49;100.00;97889.06;5049649;28;20199;-61
2023/05/23 02:24:37;;;;;;;3.58;3.05;;;;;;;15.12;100.00;97833.59;5049620;28;20189;-61
2023/05/23 02:27:03;;;;;;;3.78;3.00;;;;;;;14.93;100.00;97825.91;5049627;28;20563;-61
2023/05/23 02:29:29;;;;;;;4.90;3.35;;;;;;;14.74;100.00;97797.34;5049615;28;20258;-61
2023/05/23 02:31:54;;;;;;;4.43;3.28;;;;;;;14.62;100.00;97803.69;5049550;28;20177;-61
2023/05/23 02:34:19;;;;;;;3.53;3.22;;;;;;;14.78;100.00;97827.34;5049590;28;20180;-61
2023/05/23 02:36:45;;;;;;;3.55;3.25;;;;;;;15.13;100.00;97888.16;5049570;28;20201;-62
2023/05/23 02:39:11;;;;;;;4.10;3.05;;;;;;;14.85;100.00;97857.03;5052329;28;20201;-61
2023/05/23 02:41:36;;;;;;;3.88;3.45;;;;;;;14.91;100.00;97877.31;5053440;28;20288;-61
2023/05/23 02:44:02;;;;;;;4.72;3.60;;;;;;;14.40;100.00;97793.69;5053478;28;20184;-61
2023/05/23 02:46:27;;;;;;;7.53;3.63;;;;;;;14.21;100.00;97804.16;5053480;28;20186;-61
2023/05/23 02:48:52;;;;;;;5.65;3.45;;;;;;;14.67;100.00;97877.84;5053383;28;20268;-61
2023/05/23 02:51:18;;;;;;;6.25;3.75;;;;;;;14.72;100.00;97891.25;5015209;28;20583;-61
2023/05/23 02:53:43;;;;;;;5.22;3.50;;;;;;;14.79;100.00;97888.88;5033444;28;20201;-61
2023/05/23 02:56:09;;;;;;;3.47;3.17;;;;;;;14.22;100.00;97796.22;5033285;28;20287;-61
2023/05/23 02:58:34;;;;;;;3.78;3.42;;;;;;;14.43;100.00;97842.84;5033330;28;20187;-61
2023/05/23 03:01:03;;;;;;;3.40;3.20;;;;;;;14.49;100.00;97861.31;5033033;28;20234;-61
2023/05/23 03:03:30;;;;;;;4.53;3.85;;;;;;;14.14;100.00;97803.03;5033224;28;20677;-61
2023/05/23 03:05:58;;;;;;;3.53;3.20;;;;;;;14.15;100.00;97799.47;5033171;28;20324;-61
2023/05/23 03:08:24;;;;;;;3.85;3.55;;;;;;;14.42;100.00;97851.63;5033126;28;20213;-61
2023/05/23 03:10:50;;;;;;;6.28;3.70;;;;;;;14.29;100.00;97817.28;5033074;28;20653;-61
2023/05/23 03:13:15;;;;;;;5.30;3.75;;;;;;;14.70;100.00;97884.53;5033075;28;20221;-61
2023/05/23 03:15:41;;;;;;;5.20;3.75;;;;;;;14.18;100.00;97820.81;5033201;28;20637;-61
2023/05/23 03:18:06;;;;;;;6.18;3.55;;;;;;;14.56;100.00;97885.00;5032974;28;20237;-61
2023/05/23 03:20:32;;;;;;;4.10;3.70;;;;;;;14.50;100.00;97857.75;5032856;28;20562;-61
2023/05/23 03:22:57;;;;;;;3.80;3.25;;;;;;;14.60;100.00;97879.38;5032793;28;20293;-61
2023/05/23 03:25:23;;;;;;;3.40;3.10;;;;;;;14.49;100.00;97839.66;5032804;28;20681;-61
2023/05/23 03:27:48;;;;;;;3.53;3.22;;;;;;;14.59;100.00;97845.66;5035519;28;20293;-61
2023/05/23 03:30:14;;;;;;;6.72;3.85;;;;;;;14.66;100.00;97838.91;5052519;28;20244;-61
2023/05/23 03:32:39;;;;;;;3.85;3.45;;;;;;;14.80;100.00;97872.28;5052542;28;20182;-61
2023/05/23 03:35:05;;;;;;;4.10;3.40;;;;;;;14.85;100.00;97886.53;5052509;28;20652;-61
2023/05/23 03:37:31;;;;;;;4.03;3.70;;;;;;;14.82;100.00;97889.41;5052505;28;20672;-61
2023/05/23 03:39:56;;;;;;;4.00;3.70;;;;;;;14.21;100.00;97804.16;5012596;28;20191;-61
2023/05/23 03:42:21;;;;;;;3.67;3.40;;;;;;;14.40;100.00;97861.38;5012736;28;20612;-61
2023/05/23 03:44:47;;;;;;;4.45;3.63;;;;;;;14.08;100.00;97814.03;5012688;28;20290;-61
2023/05/23 03:47:12;;;;;;;5.72;3.83;;;;;;;14.02;100.00;97814.59;5012663;28;20646;-61
2023/05/23 03:49:38;;;;;;;5.15;3.83;;;;;;;14.24;100.00;97855.91;5011575;28;20300;-61
2023/05/23 03:52:03;;;;;;;3.80;3.45;;;;;;;13.98;100.00;97821.03;5012500;28;20280;-61
2023/05/23 03:54:28;;;;;;;3.97;3.67;;;;;;;13.98;100.00;97803.66;5012512;28;20226;-61
2023/05/23 03:56:54;;;;;;;4.60;3.47;;;;;;;14.04;100.00;97800.47;5012377;28;20179;-61
2023/05/23 03:59:19;;;;;;;4.40;4.00;;;;;;;14.30;100.00;97818.91;5012231;28;20199;-61
2023/05/23 04:01:45;;;;;;;3.58;3.17;;;;;;;14.93;100.00;97902.25;5026623;28;20643;-61
2023/05/23 04:04:10;;;;;;;4.28;3.42;;;;;;;14.89;100.00;97872.25;5032081;28;20214;-61
2023/05/23 04:06:35;;;;;;;5.55;3.90;;;;;;;14.95;100.00;97873.44;5032018;28;20170;-61
2023/05/23 04:09:02;;;;;;;4.13;3.67;;;;;;;14.92;100.00;97868.53;5031971;28;20182;-61
2023/05/23 04:11:27;;;;;;;3.40;3.10;;;;;;;14.60;100.00;97831.69;5031916;28;20195;-61
2023/05/23 04:13:53;;;;;;;6.95;3.92;;;;;;;14.61;100.00;97828.94;5031905;28;20647;-61
2023/05/23 04:16:18;;;;;;;3.83;3.42;;;;;;;15.04;100.00;97901.25;5033212;28;20273;-61
2023/05/23 04:18:45;;;;;;;4.18;3.75;;;;;;;14.81;100.00;97856.50;5054402;28;20232;-61
2023/05/23 04:21:11;;;;;;;3.75;3.45;;;;;;;14.75;100.00;97831.06;5053956;28;20197;-61
2023/05/23 04:23:37;;;;;;;5.18;3.92;;;;;;;15.10;100.00;97872.00;5054043;28;20238;-61
2023/05/23 04:26:04;;;;;;;6.28;3.53;;;;;;;15.48;100.00;97910.88;5053613;28;20212;-61
2023/05/23 04:28:30;;;;;;;3.80;3.50;;;;;;;15.03;100.00;97832.69;5053958;28;20220;-62
2023/05/23 04:30:55;;;;;;;4.40;3.65;;;;;;;15.44;100.00;97907.75;5053875;28;20633;-61
2023/05/23 04:33:21;;;;;;;3.88;3.58;;;;;;;15.47;100.00;97888.41;5051295;28;20580;-61
2023/05/23 04:35:48;;;;;;;4.13;3.72;;;;;;;15.72;100.00;97900.69;5051432;28;20200;-61
2023/05/23 04:38:13;;;;;;;6.78;4.00;;;;;;;15.55;100.00;97872.81;5051325;28;20618;-62
2023/05/23 04:40:38;;;;;;;3.60;3.30;;;;;;;15.53;100.00;97849.53;5051211;28;20211;-62
2023/05/23 04:43:04;;;;;;;4.95;3.70;;;;;;;15.90;100.00;97898.91;5051230;28;20189;-62
2023/05/23 04:45:29;;;;;;;3.55;3.33;;;;;;;15.77;100.00;97864.53;5051266;28;20174;-61
2023/05/23 04:47:55;;;;;;;4.30;3.92;;;;;;;15.77;100.00;97860.16;5051267;28;20273;-62
2023/05/23 04:50:23;;;;;;;5.07;3.25;;;;;;;15.71;100.00;97860.75;5051116;28;20198;-62
2023/05/23 04:52:49;;;;;;;3.97;3.08;;;;;;;15.55;100.00;97833.69;5050995;28;20316;-62
2023/05/23 04:55:14;;;;;;;3.72;3.42;;;;;;;15.53;100.00;97841.69;5051077;28;20569;-62
2023/05/23 04:57:40;;;;;;;5.22;4.03;;;;;;;15.75;100.00;97896.00;5050970;28;20178;-62
2023/05/23 05:00:09;;;;;;;3.97;3.60;;;;;;;15.65;100.00;97886.63;5050981;28;20209;-62
2023/05/23 05:02:36;;;;;;;6.65;3.45;;;;;;;15.61;100.00;97908.72;5050675;28;20201;-62
2023/05/23 05:05:02;;;;;;;4.55;3.70;;;;;;;15.44;100.00;97870.44;5052418;28;20182;-62
2023/05/23 05:07:28;;;;;;;5.10;3.40;;;;;;;15.61;100.00;97893.09;5053106;28;20224;-62
2023/05/23 05:09:54;;;;;;;4.20;3.50;;;;;;;15.36;100.00;97854.72;5053095;28;20223;-62
2023/05/23 05:12:19;;;;;;;3.85;3.50;;;;;;;15.21;100.00;97848.34;5053045;28;20186;-62
2023/05/23 05:14:44;;;;;;;3.67;3.38;;;;;;;15.48;100.00;97893.47;5053065;28;20182;-62
2023/05/23 05:17:10;;;;;;;4.40;4.00;;;;;;;15.23;100.00;97849.03;5052982;28;20255;-62
2023/05/23 05:19:35;;;;;;;3.50;3.20;;;;;;;15.19;100.00;97856.31;5052950;28;20252;-62
2023/05/23 05:22:01;;;;;;;3.92;3.55;;;;;;;15.38;100.00;97881.44;5052801;28;20224;-62
2023/05/23 05:24:27;;;;;;;3.97;3.58;;;;;;;15.57;100.00;97902.19;5050290;28;20202;-62
2023/05/23 05:26:53;;;;;;;3.97;3.63;;;;;;;15.59;100.00;97905.47;5050356;28;20289;-61
2023/05/23 05:29:19;;;;;;;7.15;3.63;;;;;;;15.47;100.00;97864.94;5050638;28;20263;-61
2023/05/23 05:31:44;;;;;;;4.40;3.40;;;;;;;15.65;100.00;97905.69;5050413;28;20181;-61
2023/05/23 05:34:10;;;;;;;3.28;2.97;;;;;;;15.67;100.00;97890.72;5050581;28;20189;-61
2023/05/23 05:36:35;;;;;;;5.60;3.58;;;;;;;15.67;100.00;97895.94;5050306;28;20181;-61
2023/05/23 05:39:01;;;;;;;4.53;3.70;;;;;;;15.92;100.00;97933.50;5049747;28;20212;-61
2023/05/23 05:41:26;;;;;;;4.05;3.75;;;;;;;15.56;100.00;97875.28;5049900;28;20800;-61
2023/05/23 05:43:52;;;;;;;3.90;3.40;;;;;;;15.70;100.00;97905.25;5049976;28;20236;-61
2023/05/23 05:46:17;;;;;;;3.30;3.05;;;;;;;16.10;100.00;97949.97;5049713;28;20380;-61
2023/05/23 05:48:43;;;;;;;4.85;3.70;;;;;;;16.06;100.00;97940.78;5050070;28;20699;-61
2023/05/23 05:51:08;;;;;;;4.80;3.92;;;;;;;16.12;100.00;97954.06;5050066;28;20194;-61
2023/05/23 05:53:33;;;;;;;4.88;3.50;;;;;;;15.71;100.00;97883.41;5049726;28;20227;-61
2023/05/23 05:55:59;;;;;;;5.60;3.53;;;;;;;16.22;100.00;97972.25;5050847;28;20198;-61
2023/05/23 05:58:24;;;;;;;3.58;3.10;;;;;;;16.14;100.00;97946.06;5051492;28;20178;-61
2023/05/23 06:00:50;;;;;;;4.72;3.13;;;;;;;16.35;100.00;97967.47;5052378;28;20235;-61
2023/05/23 06:03:15;;;;;;;4.05;3.28;;;;;;;16.21;100.00;97934.88;5052313;28;20656;-61
2023/05/23 06:05:41;;;;;;;3.92;3.63;;;;;;;16.35;100.00;97960.47;5052173;28;20174;-61
2023/05/23 06:08:07;;;;;;;4.35;3.30;;;;;;;16.27;100.00;97947.31;5052205;28;20173;-61
2023/05/23 06:10:33;;;;;;;5.20;3.20;;;;;;;16.12;100.00;97909.69;5052188;28;20173;-61
2023/05/23 06:12:58;;;;;;;3.58;3.28;;;;;;;16.25;100.00;97923.16;5051616;28;20188;-61
2023/05/23 06:15:24;;;;;;;4.30;3.38;;;;;;;16.12;100.00;97886.22;5051808;28;20178;-61
2023/05/23 06:17:50;;;;;;;4.50;3.05;;;;;;;16.56;100.00;97942.66;5052019;28;20231;-61
2023/05/23 06:20:15;;;;;;;5.55;3.60;;;;;;;16.25;100.00;97891.00;5051973;28;20637;-62
2023/05/23 06:22:41;;;;;;;5.00;3.50;;;;;;;16.36;100.00;97891.59;5051960;28;20247;-61
2023/05/23 06:25:06;;;;;;;3.95;3.47;;;;;;;16.48;100.00;97906.06;5051051;28;20170;-61
2023/05/23 06:27:32;;;;;;;13.45;3.92;;;;;;;16.76;100.00;97932.84;5051640;28;20667;-61
2023/05/23 06:29:57;;;;;;;3.58;3.30;;;;;;;16.69;100.00;97905.69;5052005;28;20256;-61
2023/05/23 06:32:23;;;;;;;3.75;3.45;;;;;;;16.78;100.00;97923.03;5051088;28;20173;-61
2023/05/23 06:34:48;;;;;;;4.68;3.08;;;;;;;17.21;100.00;97967.38;5051680;28;20215;-61
2023/05/23 06:37:13;;;;;;;4.65;3.60;;;;;;;17.31;100.00;97947.16;5051757;28;20197;-61
2023/05/23 06:39:39;;;;;;;7.10;3.60;;;;;;;17.27;100.00;97936.22;5051424;28;20180;-62
2023/05/23 06:42:05;;;;;;;3.70;3.17;;;;;;;17.62;100.00;97970.03;5051880;28;20196;-61
2023/05/23 06:44:30;;;;;;;3.67;3.38;;;;;;;17.71;100.00;97973.47;5051892;28;20639;-61
2023/05/23 06:46:57;;;;;;;4.68;3.50;;;;;;;17.79;100.00;97969.06;5051898;28;20174;-63
2023/05/23 06:49:23;;;;;;;6.30;3.20;;;;;;;17.50;100.00;97923.38;5051710;28;20181;-63
2023/05/23 06:51:49;;;;;;;4.38;3.17;;;;;;;17.68;100.00;97942.41;5051644;28;20189;-63
2023/05/23 06:54:15;;;;;;;4.35;3.40;;;;;;;17.91;100.00;97969.59;5051680;28;20316;-63
2023/05/23 06:56:40;;;;;;;3.92;3.63;;;;;;;17.76;100.00;97921.47;5028884;28;20677;-63
2023/05/23 06:59:05;;;;;;;4.45;3.15;;;;;;;17.63;100.00;97884.50;5029048;28;20205;-63
2023/05/23 07:01:31;;;;;;;4.25;3.80;;;;;;;17.75;100.00;97877.97;5029020;28;20662;-62
2023/05/23 07:03:56;;;;;;;4.55;3.97;;;;;;;18.20;100.00;97926.22;5029226;28;20699;-62
2023/05/23 07:06:22;;;;;;;4.53;3.35;;;;;;;18.28;100.00;97917.56;5028990;28;20178;-62
2023/05/23 07:08:47;;;;;;;5.53;3.47;;;;;;;18.50;100.00;97948.38;5029355;28;20545;-62
2023/05/23 07:11:13;;;;;;;3.95;3.58;;;;;;;18.57;100.00;97951.94;5029253;28;20178;-62
2023/05/23 07:13:38;;;;;;;4.82;3.97;;;;;;;18.48;100.00;97918.91;5028330;28;20194;-62
2023/05/23 07:16:04;;;;;;;4.45;3.38;;;;;;;18.71;100.00;97931.13;5028407;28;20664;-62
2023/05/23 07:18:29;;;;;;;3.58;3.20;;;;;;;18.56;100.00;97875.16;5029200;28;20240;-62
2023/05/23 07:20:54;;;;;;;4.47;3.33;;;;;;;18.86;100.00;97907.66;5029153;28;20696;-62
2023/05/23 07:23:23;;;;;;;3.03;2.75;;;;;;;18.83;97.00;97897.53;5029289;28;20185;-62
2023/05/23 07:25:48;;;;;;;5.13;3.28;;;;;;;18.88;97.74;97884.72;5031256;28;20188;-62
2023/05/23 07:28:14;;;;;;;3.85;3.47;;;;;;;19.15;96.05;97900.00;5032761;28;20674;-62
2023/05/23 07:30:41;;;;;;;5.40;3.50;;;;;;;19.62;92.75;97953.28;5032645;28;20185;-62
2023/05/23 07:33:07;;;;;;;3.80;3.40;;;;;;;19.58;91.71;97931.00;5034737;28;20251;-62
2023/05/23 07:35:32;;;;;;;3.95;3.20;;;;;;;19.47;89.37;97881.53;5054961;28;20178;-62
2023/05/23 07:37:57;;;;;;;3.67;3.38;;;;;;;19.75;85.90;97911.53;5054931;28;20238;-62
2023/05/23 07:40:23;;;;;;;4.50;3.10;;;;;;;19.99;83.56;97946.31;5054835;28;20170;-62
2023/05/23 07:42:49;;;;;;;4.60;3.50;;;;;;;20.01;83.70;97931.22;5054748;28;20360;-62
2023/05/23 07:45:16;;;;;;;4.65;3.20;;;;;;;20.26;84.73;97955.50;5054671;28;20173;-62
2023/05/23 07:47:42;;;;;;;4.47;3.22;;;;;;;20.35;84.89;97959.72;5054834;28;20177;-62
2023/05/23 07:50:08;;;;;;;8.27;3.55;;;;;;;20.06;84.86;97883.41;5054521;28;20264;-62
2023/05/23 07:52:35;;;;;;;5.10;2.92;;;;;;;20.51;83.69;97949.06;5054810;28;20631;-62
2023/05/23 07:55:00;;;;;;;5.05;3.30;;;;;;;20.52;82.11;97932.31;5054534;28;20178;-62
2023/05/23 07:57:26;;;;;;;7.93;3.92;;;;;;;20.79;80.44;97952.72;5054504;28;20188;-62
2023/05/23 07:59:52;;;;;;;4.63;3.92;;;;;;;20.62;81.33;97912.63;5054525;28;20192;-62
2023/05/23 08:02:18;;;;;;;4.75;3.92;;;;;;;20.85;80.43;97937.06;5053465;28;20675;-62
2023/05/23 08:04:44;;;;;;;6.57;3.60;;;;;;;21.03;80.00;97957.78;5053288;28;20177;-62
2023/05/23 08:07:10;;;;;;;6.82;3.67;;;;;;;20.82;78.94;97900.59;5054287;28;20193;-62
2023/05/23 08:09:36;;;;;;;13.50;4.25;;;;;;;20.90;76.83;97891.81;5054297;28;20583;-62
2023/05/23 08:12:02;;;;;;;8.02;4.38;;;;;;;21.27;75.37;97949.63;5054273;28;20196;-62
2023/05/23 08:14:27;;;;;;;4.40;4.00;;;;;;;21.37;74.38;97965.91;5054224;28;20173;-62
2023/05/23 08:16:53;;;;;;;4.32;3.88;;;;;;;21.26;75.05;97958.47;5054174;28;20623;-62
2023/05/23 08:19:21;;;;;;;7.32;3.72;;;;;;;21.29;73.83;97961.59;5054142;28;20165;-62
2023/05/23 08:21:46;;;;;;;10.20;3.90;;;;;;;21.12;73.46;97922.47;5054029;28;20554;-62
2023/05/23 08:24:12;;;;;;;8.32;3.90;;;;;;;21.37;72.02;97963.28;5054105;28;20174;-62
2023/05/23 08:26:38;;;;;;;4.45;3.78;;;;;;;21.42;69.77;97956.50;5054027;28;20177;-62
2023/05/23 08:29:03;;;;;;;6.45;3.53;;;;;;;21.15;66.86;97898.44;5053983;28;20180;-62
2023/05/23 08:31:31;;;;;;;4.78;3.90;;;;;;;21.46;66.18;97927.97;5053939;28;20531;-62
2023/05/23 08:33:57;;;;;;;3.20;2.97;;;;;;;21.67;65.94;97971.00;5053876;28;20180;-62
2023/05/23 08:36:23;;;;;;;4.95;3.05;;;;;;;21.45;64.13;97921.09;5053653;28;20254;-62
2023/05/23 08:38:50;;;;;;;3.30;3.05;;;;;;;21.80;64.49;97967.72;5054074;28;20703;-62
2023/05/23 08:41:18;;;;;;;4.40;3.75;;;;;;;21.43;65.53;97892.31;5051370;28;20568;-62
2023/05/23 08:43:44;;;;;;;8.32;4.35;;;;;;;21.92;67.79;97967.03;5051282;28;20220;-62
2023/05/23 08:46:11;;;;;;;5.70;3.47;;;;;;;21.51;66.15;97915.88;5051247;28;20862;-62
2023/05/23 08:48:38;;;;;;;11.80;4.15;;;;;;;21.50;65.95;97902.94;5051177;28;20247;-62
2023/05/23 08:51:03;;;;;;;5.80;3.92;;;;;;;22.01;64.92;97971.19;5051113;28;20189;-62
2023/05/23 08:53:31;;;;;;;8.40;3.97;;;;;;;21.82;64.07;97923.56;5051133;28;20246;-62
2023/05/23 08:56:01;;;;;;;6.50;3.67;;;;;;;22.04;64.69;97948.91;5051114;28;20287;-62
2023/05/23 08:58:30;;;;;;;6.28;3.53;;;;;;;22.32;63.93;97969.03;5051097;28;20168;-62
2023/05/23 09:00:56;;;;;;;4.30;3.17;;;;;;;21.92;61.92;97893.25;5050703;28;20594;-62
2023/05/23 09:03:24;;;;;;;7.13;3.80;;;;;;;22.43;61.30;97962.47;5050941;28;20181;-62
2023/05/23 09:05:50;;;;;;;5.32;3.63;;;;;;;21.97;61.70;97893.50;5050808;28;20700;-62
2023/05/23 09:08:17;;;;;;;6.65;3.35;;;;;;;22.57;62.92;97961.59;5050831;28;20178;-62
2023/05/23 09:10:43;;;;;;;3.80;3.47;;;;;;;22.64;60.97;97971.19;5050795;28;20213;-63
2023/05/23 09:13:08;;;;;;;4.50;3.88;;;;;;;22.47;62.59;97929.44;5052532;28;21017;-63
2023/05/23 09:15:34;;;;;;;3.55;3.25;;;;;;;22.30;61.39;97896.44;5053077;28;20643;-63
2023/05/23 09:18:03;;;;;;;6.25;3.40;;;;;;;22.77;59.06;97973.09;5053050;28;20177;-63
2023/05/23 09:20:29;;;;;;;4.40;3.17;;;;;;;22.73;60.01;97924.38;5053019;28;20698;-63
2023/05/23 09:22:55;;;;;;;5.60;3.70;;;;;;;23.03;58.45;97963.56;5052539;28;20189;-61
2023/05/23 09:25:20;;;;;;;6.22;3.22;;;;;;;22.64;59.92;97899.97;5052453;28;20230;-63
2023/05/23 09:27:46;;;;;;;6.15;3.47;;;;;;;23.01;58.49;97947.09;5052890;28;20259;-63
2023/05/23 09:30:12;;;;;;;3.22;3.03;;;;;;;22.94;59.91;97916.38;5052787;28;20173;-63
2023/05/23 09:32:38;;;;;;;6.25;3.42;;;;;;;23.35;60.69;97959.47;5052813;28;20181;-63
2023/05/23 09:35:11;;;;;;;4.18;3.10;;;;;;;23.23;58.86;97921.44;5052672;28;20180;-63
2023/05/23 09:37:39;;;;;;;6.88;3.92;;;;;;;23.50;58.96;97968.09;5052570;28;20169;-63
2023/05/23 09:40:11;;;;;;;5.32;3.55;;;;;;;23.51;58.81;97962.63;5052627;28;20698;-63
2023/05/23 09:42:46;;;;;;;4.32;3.15;;;;;;;23.49;59.52;97958.56;5069887;28;20296;-63
2023/05/23 09:45:13;;;;;;;4.28;3.58;;;;;;;23.31;57.08;97943.22;5070139;28;20681;-63
2023/05/23 09:47:47;;;;;;;5.00;3.47;;;;;;;23.39;57.56;97947.53;5069333;28;20728;-61
2023/05/23 09:50:13;;;;;;;8.82;3.50;;;;;;;23.53;56.80;97947.38;5069892;28;20252;-61
2023/05/23 09:52:38;;;;;;;4.57;3.45;;;;;;;23.67;57.12;97942.97;5068764;28;20271;-61
2023/05/23 09:55:05;;;;;;;3.47;3.22;;;;;;;23.51;55.34;97899.25;5069675;28;20184;-61
2023/05/23 09:57:36;;;;;;;6.18;3.78;;;;;;;23.77;56.28;97924.94;5069988;28;20188;-63
2023/05/23 10:00:12;;;;;;;5.55;3.80;;;;;;;23.62;56.08;97884.63;5069887;28;20565;-63
2023/05/23 10:03:13;;;;;;;4.85;3.63;;;;;;;24.02;54.53;97955.09;5069905;28;20706;-63
2023/05/23 10:05:47;;;;;;;4.18;3.63;;;;;;;24.08;53.90;97961.19;5069922;28;20176;-61
2023/05/23 10:08:18;;;;;;;7.05;3.88;;;;;;;23.77;54.35;97894.84;5069857;28;20231;-61
2023/05/23 10:11:12;;;;;;;5.20;3.97;;;;;;;24.03;54.88;97949.63;5069901;28;20180;-63
2023/05/23 10:13:49;;;;;;;6.82;3.35;;;;;;;24.10;55.85;97943.31;5049722;28;20196;-62
2023/05/23 10:16:37;;;;;;;6.22;3.67;;;;;;;24.15;55.33;97950.66;5049890;28;20157;-61
2023/05/23 10:19:12;;;;;;;3.70;3.38;;;;;;;23.80;52.03;97868.00;5049273;28;20192;-62
2023/05/23 10:21:44;;;;;;;5.80;3.38;;;;;;;23.94;52.25;97894.50;5049422;28;20197;-62
2023/05/23 10:24:10;;;;;;;4.00;3.40;;;;;;;24.06;50.95;97914.03;5049066;28;20230;-61
2023/05/23 10:26:36;;;;;;;5.68;3.72;;;;;;;23.80;52.22;97878.56;5048480;28;20189;-61
2023/05/23 10:29:02;;;;;;;6.72;3.50;;;;;;;23.98;52.11;97912.41;5048646;28;20258;-61
2023/05/23 10:31:28;;;;;;;9.18;4.00;;;;;;;24.17;52.47;97945.97;5009794;28;20594;-62
2023/05/23 10:34:20;;;;;;;3.28;3.08;;;;;;;24.20;51.54;97938.44;5010043;28;20265;-62
2023/05/23 10:37:01;;;;;;;4.95;3.25;;;;;;;23.87;51.31;97873.31;4932478;29;20665;-63
2023/05/23 10:40:09;;;;;;;5.50;3.13;;;;;;;24.31;51.13;97939.69;4932670;29;20175;-63
2023/05/23 10:42:48;;;;;;;4.25;3.45;;;;;;;24.53;51.34;97933.16;4913458;29;20352;-63
2023/05/23 10:45:14;;;;;;;3.47;3.28;;;;;;;24.40;50.39;97865.22;4913751;29;20194;-63
2023/05/23 10:47:39;;;;;;;4.63;3.67;;;;;;;24.92;50.52;97925.22;4913457;29;20680;-63
2023/05/23 10:50:05;;;;;;;4.40;3.20;;;;;;;24.76;49.22;97857.66;4913355;29;20197;-63
2023/05/23 10:52:39;;;;;;;8.52;3.17;;;;;;;24.95;49.33;97880.63;4913350;29;20193;-64
2023/05/23 10:55:16;;;;;;;4.20;3.60;;;;;;;25.36;49.70;97931.44;4913416;29;20175;-63
2023/05/23 10:57:43;;;;;;;8.20;3.42;;;;;;;25.63;48.78;97927.69;4913363;29;20197;-63
2023/05/23 11:00:14;;;;;;;6.00;3.80;;;;;;;25.84;47.79;97918.59;4915742;29;20217;-63
2023/05/23 11:02:51;;;;;;;8.25;3.20;;;;;;;26.12;46.76;97938.44;4939312;29;20326;-63
2023/05/23 11:05:27;;;;;;;4.55;3.45;;;;;;;25.94;46.09;97871.25;4955163;29;20667;-63
2023/05/23 11:08:16;;;;;;;5.53;3.03;;;;;;;26.13;46.91;97873.75;4966458;28;20644;-63
2023/05/23 11:10:55;;;;;;;5.32;3.45;;;;;;;26.07;47.45;97881.75;4974405;28;20172;-64
2023/05/23 11:13:21;;;;;;;5.43;3.58;;;;;;;25.96;47.19;97901.00;4974317;28;20226;-63
2023/05/23 11:15:47;;;;;;;3.63;3.28;;;;;;;25.90;47.21;97942.44;4974312;28;20183;-63
2023/05/23 11:18:21;;;;;;;4.10;3.33;;;;;;;25.32;46.76;97914.34;4978820;28;20188;-63
2023/05/23 11:20:50;;;;;;;4.03;2.90;;;;;;;25.70;48.74;97972.69;5055309;28;20546;-63
2023/05/23 11:23:16;;;;;;;6.03;2.42;;;;;;;24.76;53.70;97965.34;5055170;28;20193;-63
2023/05/23 11:25:44;;;;;;;4.65;2.53;;;;;;;23.70;58.16;97951.31;5055192;28;20651;-63
2023/05/23 11:28:11;;;;;;;5.15;2.10;;;;;;;23.15;60.45;97962.00;5055120;28;20177;-63
2023/05/23 11:30:37;;;;;;;3.60;2.42;;;;;;;22.66;61.91;97919.06;5055088;28;20173;-63